Flight Track Log - Related Links

Times and Time Zones

All times are in EDT time to prevent confusion due to time zone crossing. See the LBQ830 flight status page for this flight to view local times or setup timezone preferences in your user account.

Time Position Orientation Groundspeed Altitude Reporting Facility
EDT Latitude Longitude Course Direction KTS MPH feet Rate Location/Type
Wed 09:10:41 PM 28.0333 -82.3000 74° East 131 151 1,800  Level Tampa TRACON
Wed 09:12:05 PM 28.0500 -82.2333 111° Southeast 155 178 3,000 917 Climbing Tampa TRACON
Wed 09:13:05 PM 28.0333 -82.1833 90° East 163 188 4,000 900 Climbing Tampa TRACON
Wed 09:14:05 PM 28.0333 -82.1500 90° East 152 175 4,800 415 Climbing Tampa TRACON
Wed 09:15:44 PM 28.0333 -82.0500 90° East 193 222 5,100 109 Climbing Orlando TRACON
Wed 09:16:50 PM 28.0333 -81.9833 90° East 199 229 5,100  Level Orlando TRACON
Wed 09:17:50 PM 28.0333 -81.9167 53° Northeast 199 229 5,100  Level Orlando TRACON
Wed 09:18:50 PM 28.0667 -81.8667 53° Northeast 198 228 5,100  Level Orlando TRACON
Wed 09:19:56 PM 28.1000 -81.8167 53° Northeast 199 229 5,100 -211 Level Orlando TRACON
Wed 09:20:44 PM 28.1333 -81.7667 74° East 208 239 4,700 -500 Descending Orlando TRACON
Wed 09:21:44 PM 28.1500 -81.7000 30° Northeast 218 251 4,200 -365 Descending Orlando TRACON
Wed 09:22:39 PM 28.2000 -81.6667 41° Northeast 213 245 4,000 -429 Descending Orlando TRACON
Wed 09:23:50 PM 28.2500 -81.6167 41° Northeast 219 252 3,300 -455 Descending Orlando TRACON
Wed 09:24:51 PM 28.3000 -81.5667 41° Northeast 220 253 3,000 -165 Descending Orlando TRACON
Wed 09:25:39 PM 28.3333 -81.5333 41° Northeast 208 239 3,000 50 Level Orlando TRACON
Wed 09:26:51 PM 28.3833 -81.4833 16° North 203 234 3,100  Climbing Orlando TRACON
Wed 09:27:50 PM 28.4333 -81.4667 30° Northeast 194 223 3,000 -303 Descending Orlando TRACON
Wed 09:28:50 PM 28.4833 -81.4333 90° East 196 226 2,500 -397 Descending Orlando TRACON
Wed 09:29:51 PM 28.4833 -81.3833 90° East 171 197 2,200 -522 Descending Orlando TRACON
Wed 09:30:45 PM 28.4833 -81.3333 90° East 151 174 1,500 -778 Descending Orlando TRACON

Login

Don't have an account? Register now (free) for customized features, flight alerts, and more!